createdAt,value
2022-10-16T04:01:16.606Z,2.73
2022-10-16T04:03:48.800Z,2.88
2022-10-16T04:06:20.779Z,3.17
2022-10-16T04:08:52.685Z,5.60
2022-10-16T04:11:24.481Z,4.20
2022-10-16T04:13:56.456Z,3.80
2022-10-16T04:16:28.131Z,2.97
2022-10-16T04:18:59.903Z,5.10
2022-10-16T04:21:31.644Z,2.77
2022-10-16T04:24:03.779Z,2.37
2022-10-16T04:26:35.548Z,3.63
2022-10-16T04:29:08.067Z,2.50
2022-10-16T04:31:39.759Z,2.97
2022-10-16T04:34:11.432Z,2.87
2022-10-16T04:36:43.236Z,3.50
2022-10-16T04:39:15.039Z,3.10
2022-10-16T04:41:46.808Z,2.93
2022-10-16T04:44:18.639Z,3.37
2022-10-16T04:46:53.301Z,4.63
2022-10-16T04:49:25.094Z,3.87
2022-10-16T04:51:56.820Z,2.70
2022-10-16T04:54:28.679Z,2.97
2022-10-16T04:57:00.433Z,2.70
2022-10-16T04:59:32.210Z,2.90
2022-10-16T05:02:03.994Z,2.93
2022-10-16T05:04:35.700Z,2.40
2022-10-16T05:07:07.412Z,2.50
2022-10-16T05:09:39.243Z,2.77
2022-10-16T05:12:11.082Z,3.40
2022-10-16T05:14:42.732Z,2.63
2022-10-16T05:17:14.473Z,3.03
2022-10-16T05:19:46.296Z,2.93
2022-10-16T05:22:18.474Z,2.93
2022-10-16T05:24:50.210Z,4.10
2022-10-16T05:27:21.972Z,2.90
2022-10-16T05:29:53.764Z,2.97
2022-10-16T05:32:25.539Z,3.47
2022-10-16T05:34:57.297Z,3.10
2022-10-16T05:37:29.273Z,3.03
2022-10-16T05:40:01.243Z,3.40
2022-10-16T05:42:32.931Z,2.67
2022-10-16T05:45:06.464Z,2.80
2022-10-16T05:47:38.397Z,2.80
2022-10-16T05:50:10.131Z,3.23
2022-10-16T05:52:41.859Z,3.17
2022-10-16T05:55:13.620Z,2.83
2022-10-16T05:57:45.318Z,3.10
2022-10-16T06:00:17.104Z,2.80
2022-10-16T06:02:48.794Z,2.63
2022-10-16T06:05:20.502Z,4.23
2022-10-16T06:07:52.266Z,3.07
2022-10-16T06:10:23.924Z,3.47
2022-10-16T06:12:55.591Z,2.90
2022-10-16T06:15:27.335Z,3.87
2022-10-16T06:17:59.034Z,3.67
2022-10-16T06:20:30.741Z,2.40
2022-10-16T06:23:02.730Z,3.30
2022-10-16T06:25:34.516Z,2.73
2022-10-16T06:28:06.297Z,3.10
2022-10-16T06:30:38.027Z,3.43
2022-10-16T06:33:09.746Z,3.57
2022-10-16T06:35:42.045Z,3.20
2022-10-16T06:38:13.719Z,3.23
2022-10-16T06:40:45.467Z,3.60
2022-10-16T06:43:17.187Z,4.50
2022-10-16T06:45:56.573Z,2.97
2022-10-16T06:48:29.303Z,3.20
2022-10-16T06:51:09.534Z,3.17
2022-10-16T06:54:01.896Z,3.27
2022-10-16T06:56:35.010Z,3.00
2022-10-16T06:59:06.831Z,3.33
2022-10-16T07:01:38.638Z,2.70
2022-10-16T07:04:10.430Z,3.60
2022-10-16T07:06:42.221Z,4.00
2022-10-16T07:09:13.990Z,3.40
2022-10-16T07:11:45.669Z,2.70
2022-10-16T07:14:19.678Z,2.90
2022-10-16T07:16:52.456Z,2.63
2022-10-16T07:19:24.363Z,3.10
2022-10-16T07:21:56.092Z,2.80
2022-10-16T07:24:27.860Z,3.23
2022-10-16T07:26:59.684Z,2.50
2022-10-16T07:29:31.430Z,3.13
2022-10-16T07:32:03.310Z,3.40
2022-10-16T07:34:35.093Z,2.63
2022-10-16T07:37:06.860Z,2.23
2022-10-16T07:39:38.621Z,2.63
2022-10-16T07:42:10.386Z,2.25
2022-10-16T07:44:42.116Z,3.27
2022-10-16T07:47:13.875Z,2.43
2022-10-16T07:49:45.548Z,2.60
2022-10-16T07:52:17.264Z,2.60
2022-10-16T07:54:49.033Z,2.80
2022-10-16T07:57:21.056Z,3.10
2022-10-16T07:59:52.799Z,2.90
2022-10-16T08:02:24.533Z,3.00
2022-10-16T08:04:56.227Z,2.60
2022-10-16T08:07:28.245Z,2.23
2022-10-16T08:10:00.172Z,2.90
2022-10-16T08:12:31.967Z,2.57
2022-10-16T08:15:03.994Z,3.30
2022-10-16T08:17:35.705Z,4.00
2022-10-16T08:20:08.095Z,3.23
2022-10-16T08:22:40.159Z,3.60
2022-10-16T08:25:11.961Z,3.57
2022-10-16T08:27:43.893Z,3.00
2022-10-16T08:30:17.335Z,3.00
2022-10-16T08:32:49.270Z,2.30
2022-10-16T08:35:21.025Z,2.63
2022-10-16T08:37:52.765Z,3.20
2022-10-16T08:40:33.066Z,2.40
2022-10-16T08:43:35.431Z,2.17
2022-10-16T08:46:39.374Z,2.60
2022-10-16T08:49:16.884Z,2.67
2022-10-16T08:51:50.430Z,2.40
2022-10-16T08:54:41.463Z,2.67
2022-10-16T08:57:23.863Z,2.83
2022-10-16T09:00:01.401Z,3.20
2022-10-16T09:02:38.452Z,3.80
2022-10-16T09:05:19.317Z,2.93
2022-10-16T09:08:20.101Z,2.80
2022-10-16T09:11:09.782Z,2.63
2022-10-16T09:14:09.151Z,2.53
2022-10-16T09:16:54.026Z,3.10
2022-10-16T09:19:38.983Z,2.90
2022-10-16T09:22:18.054Z,2.90
2022-10-16T09:24:49.781Z,2.60
2022-10-16T09:27:21.755Z,2.40
2022-10-16T09:29:58.804Z,2.70
2022-10-16T09:32:34.559Z,2.23
2022-10-16T09:35:14.858Z,2.20
2022-10-16T09:37:49.556Z,2.00
2022-10-16T09:40:30.028Z,2.43
2022-10-16T09:43:47.613Z,2.60
2022-10-16T09:46:36.961Z,2.00
2022-10-16T09:49:38.254Z,2.00
2022-10-16T09:52:15.743Z,2.00
2022-10-16T09:55:02.448Z,1.90
2022-10-16T09:57:35.329Z,1.85
2022-10-16T10:00:10.394Z,1.90
2022-10-16T10:02:42.227Z,1.90
2022-10-16T10:05:29.330Z,2.27
2022-10-16T10:08:06.904Z,2.00
2022-10-16T10:10:43.667Z,1.80
2022-10-16T10:13:23.484Z,1.67
2022-10-16T10:15:55.456Z,2.30
2022-10-16T10:18:27.397Z,2.40
2022-10-16T10:23:38.110Z,1.77
2022-10-16T10:26:22.229Z,2.10
2022-10-16T10:29:04.409Z,2.20
2022-10-16T10:32:01.377Z,2.43
2022-10-16T10:34:44.918Z,2.60
2022-10-16T10:37:35.929Z,1.73
2022-10-16T10:40:40.070Z,2.37
2022-10-16T10:43:38.055Z,2.40
2022-10-16T10:46:30.843Z,2.53
2022-10-16T10:49:02.539Z,2.40
2022-10-16T10:52:06.403Z,2.10
2022-10-16T10:55:10.175Z,2.83
2022-10-16T10:57:57.322Z,2.17
2022-10-16T11:00:41.455Z,2.20
2022-10-16T11:03:59.723Z,1.90
2022-10-16T11:06:39.779Z,2.10
2022-10-16T11:09:29.257Z,2.40
2022-10-16T11:12:03.822Z,2.23
2022-10-16T11:14:50.736Z,2.40
2022-10-16T11:17:35.199Z,1.80
2022-10-16T11:20:18.990Z,3.00
2022-10-16T11:23:35.780Z,2.30
2022-10-16T11:26:14.539Z,5.17
2022-10-16T11:28:57.420Z,2.83
2022-10-16T11:31:59.098Z,2.07
2022-10-16T11:34:45.946Z,2.63
2022-10-16T11:37:44.675Z,2.83
2022-10-16T11:40:39.299Z,2.47
2022-10-16T11:43:22.175Z,2.53
2022-10-16T11:45:58.806Z,2.00
2022-10-16T11:48:47.045Z,1.90
2022-10-16T11:51:40.546Z,2.47
2022-10-16T11:54:36.584Z,2.70
2022-10-16T11:57:21.302Z,2.33
2022-10-16T12:00:23.568Z,2.60
2022-10-16T12:02:55.293Z,2.20
2022-10-16T12:05:48.510Z,2.37
2022-10-16T12:08:20.562Z,2.30
2022-10-16T12:10:53.691Z,2.30
2022-10-16T12:13:34.074Z,2.40
2022-10-16T12:16:14.810Z,3.43
2022-10-16T12:18:47.614Z,2.80
2022-10-16T12:21:30.476Z,2.80
2022-10-16T12:24:05.764Z,2.50
2022-10-16T12:26:42.798Z,2.60
2022-10-16T12:29:33.026Z,2.83
2022-10-16T12:32:09.271Z,2.53
2022-10-16T12:34:44.137Z,2.70
2022-10-16T12:37:25.386Z,2.93
2022-10-16T12:39:58.849Z,2.28
2022-10-16T12:42:34.301Z,3.27
2022-10-16T12:45:32.786Z,2.40
2022-10-16T12:48:19.724Z,2.70
2022-10-16T12:50:51.512Z,2.30
2022-10-16T12:53:27.019Z,2.40
2022-10-16T12:56:09.796Z,2.50
2022-10-16T12:58:52.063Z,2.87
2022-10-16T13:01:39.746Z,2.50
2022-10-16T13:04:32.706Z,2.93
2022-10-16T13:07:40.822Z,2.80
2022-10-16T13:10:34.290Z,2.77
2022-10-16T13:13:14.570Z,2.83
2022-10-16T13:15:52.052Z,2.33
2022-10-16T13:18:50.062Z,2.57
2022-10-16T13:21:37.829Z,2.73
2022-10-16T13:24:30.631Z,2.70
2022-10-16T13:27:13.318Z,2.30
2022-10-16T13:29:45.133Z,2.63
2022-10-16T13:32:17.300Z,2.53
2022-10-16T13:34:50.191Z,2.60
2022-10-16T13:37:25.144Z,2.50
2022-10-16T13:40:19.953Z,2.50
2022-10-16T13:42:53.883Z,2.30
2022-10-16T13:45:26.613Z,2.80
2022-10-16T13:48:06.366Z,2.60
2022-10-16T13:50:38.095Z,2.77
2022-10-16T13:53:16.015Z,2.37
2022-10-16T13:55:47.799Z,3.27
2022-10-16T13:58:19.443Z,2.90
2022-10-16T14:01:06.285Z,2.47
2022-10-16T14:03:38.822Z,4.03
2022-10-16T14:06:28.924Z,2.80
2022-10-16T14:09:07.455Z,3.00
2022-10-16T14:11:52.281Z,4.50
2022-10-16T14:14:24.647Z,3.87
2022-10-16T14:16:57.468Z,2.80
2022-10-16T14:19:30.852Z,2.93
2022-10-16T14:22:02.908Z,3.03
2022-10-16T14:24:36.014Z,3.33
2022-10-16T14:27:43.076Z,4.30
2022-10-16T14:30:19.648Z,4.37
2022-10-16T14:33:03.866Z,3.10
2022-10-16T14:35:40.928Z,4.10
2022-10-16T14:38:21.985Z,3.90
2022-10-16T14:40:55.524Z,3.37
2022-10-16T14:43:33.560Z,3.60
2022-10-16T14:46:17.770Z,4.77
2022-10-16T14:48:51.975Z,3.70
2022-10-16T14:51:23.898Z,3.03
2022-10-16T14:53:59.981Z,3.63
2022-10-16T14:56:56.516Z,3.27
2022-10-16T14:59:34.834Z,4.30
2022-10-16T15:02:28.182Z,6.10
2022-10-16T15:05:20.254Z,3.73
2022-10-16T15:07:55.707Z,3.83
2022-10-16T15:10:29.979Z,4.20
2022-10-16T15:13:01.727Z,4.00
2022-10-16T15:15:52.580Z,3.93
2022-10-16T15:18:24.539Z,4.10
2022-10-16T15:20:56.364Z,4.77
2022-10-16T15:23:28.113Z,5.00
2022-10-16T15:26:00.417Z,4.43
2022-10-16T15:28:32.210Z,5.13
2022-10-16T15:31:06.387Z,4.23
2022-10-16T15:33:39.922Z,4.00
2022-10-16T15:36:12.054Z,5.77
2022-10-16T15:38:43.779Z,6.73
2022-10-16T15:41:15.471Z,4.90
2022-10-16T15:43:49.340Z,4.37
2022-10-16T15:46:23.122Z,4.13
2022-10-16T15:48:59.342Z,4.27
2022-10-16T15:51:33.434Z,4.37
2022-10-16T15:54:05.335Z,4.30
2022-10-16T15:56:38.017Z,4.37
2022-10-16T15:59:09.986Z,4.70
2022-10-16T16:01:41.743Z,3.90
2022-10-16T16:04:31.990Z,4.13
2022-10-16T16:07:08.164Z,4.03
2022-10-16T16:09:39.923Z,4.23
2022-10-16T16:12:11.780Z,5.30
2022-10-16T16:14:46.944Z,4.23
2022-10-16T16:17:19.203Z,6.05
2022-10-16T16:19:53.998Z,5.70
2022-10-16T16:22:26.304Z,5.10
2022-10-16T16:24:58.217Z,4.40
2022-10-16T16:27:33.947Z,4.27
2022-10-16T16:30:08.260Z,4.43
2022-10-16T16:32:40.227Z,5.13
2022-10-16T16:35:12.173Z,3.80
2022-10-16T16:37:43.856Z,4.33
2022-10-16T16:40:15.702Z,4.20
2022-10-16T16:42:49.883Z,5.03
2022-10-16T16:45:21.659Z,4.77
2022-10-16T16:47:54.383Z,5.00
2022-10-16T16:50:26.224Z,4.60
2022-10-16T16:52:58.004Z,4.17
2022-10-16T16:55:29.818Z,4.27
2022-10-16T16:58:01.651Z,4.30
2022-10-16T17:00:33.568Z,4.33
2022-10-16T17:03:05.550Z,5.13
2022-10-16T17:05:37.366Z,4.30
2022-10-16T17:08:09.618Z,3.90
2022-10-16T17:10:44.975Z,3.90
2022-10-16T17:13:16.735Z,5.17
2022-10-16T17:15:49.622Z,5.27
2022-10-16T17:18:23.755Z,4.47
2022-10-16T17:20:55.495Z,4.43
2022-10-16T17:23:27.291Z,5.03
2022-10-16T17:26:06.099Z,4.60
2022-10-16T17:28:37.844Z,4.60
2022-10-16T17:31:19.886Z,4.80
2022-10-16T17:33:52.022Z,5.40
2022-10-16T17:36:24.398Z,4.90
2022-10-16T17:39:00.280Z,4.67
2022-10-16T17:41:33.347Z,5.10
2022-10-16T17:44:06.529Z,4.57
2022-10-16T17:46:40.964Z,4.80
2022-10-16T17:49:13.133Z,4.63
2022-10-16T17:51:45.096Z,5.00
2022-10-16T17:54:16.786Z,4.90
2022-10-16T17:56:48.781Z,4.37
2022-10-16T17:59:23.123Z,3.77
2022-10-16T18:01:55.134Z,4.03
2022-10-16T18:04:26.919Z,4.00
2022-10-16T18:07:00.409Z,4.20
2022-10-16T18:09:32.314Z,4.10
2022-10-16T18:12:04.271Z,5.27
2022-10-16T18:14:35.948Z,6.50
2022-10-16T18:17:07.782Z,3.90
2022-10-16T18:19:39.449Z,4.40
2022-10-16T18:22:11.164Z,5.60
2022-10-16T18:24:42.965Z,5.20
2022-10-16T18:27:14.699Z,6.90
2022-10-16T18:29:46.463Z,4.90
2022-10-16T18:32:18.324Z,5.20
2022-10-16T18:34:50.188Z,5.47
2022-10-16T18:37:22.289Z,4.53
2022-10-16T18:39:54.008Z,4.57
2022-10-16T18:42:25.787Z,4.73
2022-10-16T18:44:57.679Z,5.33
2022-10-16T18:47:29.811Z,5.33
2022-10-16T18:50:01.744Z,5.40
2022-10-16T18:52:33.495Z,7.07
2022-10-16T18:55:05.859Z,5.50
2022-10-16T18:57:37.635Z,4.50
2022-10-16T19:00:09.896Z,5.47
2022-10-16T19:02:41.599Z,5.07
2022-10-16T19:05:15.644Z,5.60
2022-10-16T19:07:48.371Z,5.10
2022-10-16T19:10:20.120Z,4.43
2022-10-16T19:12:51.968Z,5.80
2022-10-16T19:15:24.043Z,4.57
2022-10-16T19:17:55.816Z,6.10
2022-10-16T19:20:27.467Z,6.07
2022-10-16T19:22:59.230Z,7.37
2022-10-16T19:25:31.007Z,7.47
2022-10-16T19:28:07.526Z,6.93
2022-10-16T19:30:40.634Z,7.33
2022-10-16T19:33:12.940Z,7.30
2022-10-16T19:35:45.127Z,7.00
2022-10-16T19:38:16.960Z,7.60
2022-10-16T19:40:48.699Z,5.70
2022-10-16T19:43:20.517Z,7.23
2022-10-16T19:45:52.199Z,7.57
2022-10-16T19:51:01.972Z,6.27
2022-10-16T19:53:34.014Z,6.20
2022-10-16T19:56:17.046Z,6.47
2022-10-16T19:58:51.246Z,6.87
2022-10-16T20:01:24.177Z,6.17
2022-10-16T20:03:56.498Z,5.47
2022-10-16T20:06:28.372Z,5.80
2022-10-16T20:09:00.182Z,6.37
2022-10-16T20:11:34.536Z,5.70
2022-10-16T20:14:06.652Z,4.93
2022-10-16T20:16:40.225Z,5.60
2022-10-16T20:19:11.958Z,6.50
2022-10-16T20:21:43.697Z,7.73
2022-10-16T20:24:15.667Z,6.17
2022-10-16T20:26:47.411Z,5.60
2022-10-16T20:29:19.183Z,6.33
2022-10-16T20:31:50.907Z,6.03
2022-10-16T20:34:22.731Z,6.27
2022-10-16T20:36:54.386Z,5.63
2022-10-16T20:39:26.242Z,4.77
2022-10-16T20:41:57.898Z,5.67
2022-10-16T20:44:29.650Z,5.90
2022-10-16T20:47:01.387Z,5.50
2022-10-16T20:49:40.806Z,5.40
2022-10-16T20:52:12.902Z,6.00
2022-10-16T20:54:45.848Z,4.93
2022-10-16T20:57:17.504Z,5.20
2022-10-16T20:59:50.722Z,5.40
2022-10-16T21:04:59.671Z,5.83
2022-10-16T21:07:31.410Z,6.90
2022-10-16T21:10:04.160Z,6.27
2022-10-16T21:12:35.904Z,6.60
2022-10-16T21:15:15.797Z,5.47
2022-10-16T21:17:48.207Z,6.25
2022-10-16T21:20:20.928Z,5.13
2022-10-16T21:22:52.695Z,5.00
2022-10-16T21:25:24.354Z,5.43
2022-10-16T21:27:56.018Z,4.90
2022-10-16T21:30:27.776Z,6.70
2022-10-16T21:32:59.471Z,5.43
2022-10-16T21:35:31.582Z,6.20
2022-10-16T21:38:06.525Z,6.90
2022-10-16T21:40:38.267Z,7.10
2022-10-16T21:43:10.980Z,5.38
2022-10-16T21:45:42.666Z,5.53
2022-10-16T21:48:15.774Z,5.70
2022-10-16T21:50:50.552Z,5.07
2022-10-16T21:53:22.263Z,5.83
2022-10-16T21:55:54.025Z,4.50
2022-10-16T21:58:28.783Z,4.93
2022-10-16T22:01:10.596Z,4.40
2022-10-16T22:03:43.300Z,4.73
2022-10-16T22:06:17.707Z,5.00
2022-10-16T22:08:52.126Z,4.00
2022-10-16T22:11:26.965Z,4.25
2022-10-16T22:13:58.659Z,5.00
2022-10-16T22:16:30.548Z,4.43
2022-10-16T22:19:03.648Z,5.93
2022-10-16T22:21:38.558Z,4.37
2022-10-16T22:24:10.543Z,4.67
2022-10-16T22:26:42.373Z,4.60
2022-10-16T22:29:14.682Z,4.30
2022-10-16T22:31:46.416Z,4.67
2022-10-16T22:34:18.162Z,7.03
2022-10-16T22:36:50.762Z,5.40
2022-10-16T22:39:22.443Z,6.40
2022-10-16T22:41:54.302Z,4.47
2022-10-16T22:44:26.073Z,5.33
2022-10-16T22:46:59.098Z,5.47
2022-10-16T22:49:30.833Z,4.90
2022-10-16T22:52:02.558Z,4.60
2022-10-16T22:54:34.311Z,4.20
2022-10-16T22:57:05.971Z,4.33
2022-10-16T22:59:37.724Z,6.07
2022-10-16T23:02:09.407Z,4.80
2022-10-16T23:04:41.154Z,4.10
2022-10-16T23:07:12.933Z,5.53
2022-10-16T23:09:44.578Z,5.77
2022-10-16T23:12:19.091Z,4.80
2022-10-16T23:14:50.985Z,4.90
2022-10-16T23:17:22.733Z,5.57
2022-10-16T23:19:54.506Z,4.73
2022-10-16T23:22:26.412Z,5.50
2022-10-16T23:24:58.298Z,4.80
2022-10-16T23:27:29.953Z,4.97
2022-10-16T23:30:01.699Z,4.50
2022-10-16T23:32:34.167Z,5.10
2022-10-16T23:35:06.217Z,5.40
2022-10-16T23:37:37.947Z,6.37
2022-10-16T23:40:10.152Z,5.47
2022-10-16T23:42:41.863Z,6.43
2022-10-16T23:45:13.628Z,4.97
2022-10-16T23:47:45.350Z,5.53
2022-10-16T23:50:17.268Z,5.90
2022-10-16T23:52:48.925Z,4.57
2022-10-16T23:55:20.605Z,4.27
2022-10-16T23:57:52.283Z,5.25
